sensor_id;sensor_type;location;lat;lon;timestamp;pressure;altitude;pressure_sealevel;temperature;humidity
56928;BME280;60850;52.502;13.426;2023-02-28T00:00:32;102716.03;;;2.87;100.00
56928;BME280;60850;52.502;13.426;2023-02-28T00:03:14;102715.19;;;2.88;100.00
56928;BME280;60850;52.502;13.426;2023-02-28T00:05:41;102711.53;;;2.85;100.00
56928;BME280;60850;52.502;13.426;2023-02-28T00:08:08;102720.16;;;2.81;100.00
56928;BME280;60850;52.502;13.426;2023-02-28T00:10:35;102718.44;;;2.81;100.00
56928;BME280;60850;52.502;13.426;2023-02-28T00:13:05;102716.91;;;2.88;100.00
56928;BME280;60850;52.502;13.426;2023-02-28T00:15:33;102714.91;;;2.81;100.00
56928;BME280;60850;52.502;13.426;2023-02-28T00:18:00;102719.44;;;2.85;100.00
56928;BME280;60850;52.502;13.426;2023-02-28T00:20:27;102724.16;;;2.69;100.00
56928;BME280;60850;52.502;13.426;2023-02-28T00:22:54;102722.19;;;2.64;100.00
56928;BME280;60850;52.502;13.426;2023-02-28T00:25:22;102716.81;;;2.61;100.00
56928;BME280;60850;52.502;13.426;2023-02-28T00:27:50;102719.72;;;2.68;100.00
56928;BME280;60850;52.502;13.426;2023-02-28T00:30:19;102718.75;;;2.66;100.00
56928;BME280;60850;52.502;13.426;2023-02-28T00:32:47;102719.66;;;2.67;100.00
56928;BME280;60850;52.502;13.426;2023-02-28T00:35:14;102719.84;;;2.71;100.00
56928;BME280;60850;52.502;13.426;2023-02-28T00:37:41;102722.22;;;2.65;100.00
56928;BME280;60850;52.502;13.426;2023-02-28T00:40:09;102722.38;;;2.68;100.00
56928;BME280;60850;52.502;13.426;2023-02-28T00:42:38;102722.47;;;2.71;100.00
56928;BME280;60850;52.502;13.426;2023-02-28T00:45:06;102721.00;;;2.80;100.00
56928;BME280;60850;52.502;13.426;2023-02-28T00:47:35;102722.03;;;2.83;100.00
56928;BME280;60850;52.502;13.426;2023-02-28T00:50:02;102728.91;;;2.80;100.00
56928;BME280;60850;52.502;13.426;2023-02-28T00:52:30;102722.94;;;2.84;100.00
56928;BME280;60850;52.502;13.426;2023-02-28T00:54:57;102729.09;;;2.84;100.00
56928;BME280;60850;52.502;13.426;2023-02-28T00:57:24;102726.88;;;2.72;100.00
56928;BME280;60850;52.502;13.426;2023-02-28T00:59:51;102733.09;;;2.74;100.00
56928;BME280;60850;52.502;13.426;2023-02-28T01:02:20;102728.00;;;2.55;100.00
56928;BME280;60850;52.502;13.426;2023-02-28T01:04:48;102727.25;;;2.59;100.00
56928;BME280;60850;52.502;13.426;2023-02-28T01:07:15;102726.41;;;2.60;100.00
56928;BME280;60850;52.502;13.426;2023-02-28T01:09:42;102725.72;;;2.64;100.00
56928;BME280;60850;52.502;13.426;2023-02-28T01:12:09;102729.13;;;2.62;100.00
56928;BME280;60850;52.502;13.426;2023-02-28T01:14:36;102718.66;;;2.63;100.00
56928;BME280;60850;52.502;13.426;2023-02-28T01:17:03;102721.16;;;2.60;100.00
56928;BME280;60850;52.502;13.426;2023-02-28T01:19:30;102715.59;;;2.53;100.00
56928;BME280;60850;52.502;13.426;2023-02-28T01:22:01;102715.38;;;2.46;100.00
56928;BME280;60850;52.502;13.426;2023-02-28T01:24:29;102721.56;;;2.47;100.00
56928;BME280;60850;52.502;13.426;2023-02-28T01:26:56;102716.09;;;2.42;100.00
56928;BME280;60850;52.502;13.426;2023-02-28T01:29:22;102706.19;;;2.35;100.00
56928;BME280;60850;52.502;13.426;2023-02-28T01:31:49;102704.84;;;2.24;100.00
56928;BME280;60850;52.502;13.426;2023-02-28T01:34:16;102708.03;;;2.15;100.00
56928;BME280;60850;52.502;13.426;2023-02-28T01:36:44;102708.63;;;2.08;100.00
56928;BME280;60850;52.502;13.426;2023-02-28T01:39:13;102704.78;;;2.00;100.00
56928;BME280;60850;52.502;13.426;2023-02-28T01:41:40;102706.34;;;1.95;100.00
56928;BME280;60850;52.502;13.426;2023-02-28T01:47:13;102710.72;;;1.74;100.00
56928;BME280;60850;52.502;13.426;2023-02-28T01:49:40;102710.13;;;1.81;100.00
56928;BME280;60850;52.502;13.426;2023-02-28T01:52:08;102714.88;;;1.69;100.00
56928;BME280;60850;52.502;13.426;2023-02-28T01:54:46;102716.31;;;1.60;100.00
56928;BME280;60850;52.502;13.426;2023-02-28T01:57:18;102721.06;;;1.48;100.00
56928;BME280;60850;52.502;13.426;2023-02-28T01:59:50;102716.53;;;1.25;100.00
56928;BME280;60850;52.502;13.426;2023-02-28T02:02:21;102711.84;;;1.18;100.00
56928;BME280;60850;52.502;13.426;2023-02-28T02:04:53;102707.44;;;1.17;100.00
56928;BME280;60850;52.502;13.426;2023-02-28T02:07:22;102714.34;;;1.15;100.00
56928;BME280;60850;52.502;13.426;2023-02-28T02:09:59;102714.22;;;1.12;100.00
56928;BME280;60850;52.502;13.426;2023-02-28T02:12:31;102709.72;;;1.09;100.00
56928;BME280;60850;52.502;13.426;2023-02-28T02:15:24;102701.84;;;1.09;100.00
56928;BME280;60850;52.502;13.426;2023-02-28T02:17:57;102709.03;;;1.13;100.00
56928;BME280;60850;52.502;13.426;2023-02-28T02:24:09;102713.94;;;1.05;100.00
56928;BME280;60850;52.502;13.426;2023-02-28T02:26:55;102715.75;;;1.06;100.00
56928;BME280;60850;52.502;13.426;2023-02-28T02:29:59;102705.72;;;0.98;100.00
56928;BME280;60850;52.502;13.426;2023-02-28T02:32:56;102710.84;;;0.95;100.00
56928;BME280;60850;52.502;13.426;2023-02-28T02:35:29;102707.44;;;0.97;100.00
56928;BME280;60850;52.502;13.426;2023-02-28T02:38:02;102700.97;;;0.89;100.00
56928;BME280;60850;52.502;13.426;2023-02-28T02:40:37;102706.28;;;0.91;100.00
56928;BME280;60850;52.502;13.426;2023-02-28T02:43:07;102705.47;;;0.92;100.00
56928;BME280;60850;52.502;13.426;2023-02-28T02:45:43;102708.34;;;0.98;100.00
56928;BME280;60850;52.502;13.426;2023-02-28T02:48:14;102708.16;;;0.93;100.00
56928;BME280;60850;52.502;13.426;2023-02-28T02:50:45;102712.31;;;0.88;100.00
56928;BME280;60850;52.502;13.426;2023-02-28T02:53:17;102709.69;;;0.88;100.00
56928;BME280;60850;52.502;13.426;2023-02-28T02:55:47;102705.19;;;0.86;100.00
56928;BME280;60850;52.502;13.426;2023-02-28T02:58:21;102707.06;;;0.88;100.00
56928;BME280;60850;52.502;13.426;2023-02-28T03:00:53;102717.84;;;0.94;100.00
56928;BME280;60850;52.502;13.426;2023-02-28T03:03:22;102708.91;;;0.91;100.00
56928;BME280;60850;52.502;13.426;2023-02-28T03:05:56;102710.22;;;1.00;100.00
56928;BME280;60850;52.502;13.426;2023-02-28T03:08:24;102712.53;;;0.93;100.00
56928;BME280;60850;52.502;13.426;2023-02-28T03:10:55;102711.69;;;0.94;100.00
56928;BME280;60850;52.502;13.426;2023-02-28T03:13:39;102721.97;;;0.89;100.00
56928;BME280;60850;52.502;13.426;2023-02-28T03:16:33;102717.78;;;0.93;100.00
56928;BME280;60850;52.502;13.426;2023-02-28T03:19:10;102713.69;;;0.99;100.00
56928;BME280;60850;52.502;13.426;2023-02-28T03:21:47;102720.16;;;1.07;100.00
56928;BME280;60850;52.502;13.426;2023-02-28T03:24:19;102713.19;;;1.08;100.00
56928;BME280;60850;52.502;13.426;2023-02-28T03:26:55;102723.75;;;1.09;100.00
56928;BME280;60850;52.502;13.426;2023-02-28T03:29:26;102719.28;;;1.07;100.00
56928;BME280;60850;52.502;13.426;2023-02-28T03:31:58;102731.25;;;1.00;100.00
56928;BME280;60850;52.502;13.426;2023-02-28T03:34:29;102726.47;;;0.92;100.00
56928;BME280;60850;52.502;13.426;2023-02-28T03:37:06;102725.31;;;0.85;100.00
56928;BME280;60850;52.502;13.426;2023-02-28T03:39:37;102720.63;;;0.78;100.00
56928;BME280;60850;52.502;13.426;2023-02-28T03:42:10;102724.13;;;0.78;100.00
56928;BME280;60850;52.502;13.426;2023-02-28T03:44:41;102721.06;;;0.69;100.00
56928;BME280;60850;52.502;13.426;2023-02-28T03:47:12;102727.75;;;0.63;100.00
56928;BME280;60850;52.502;13.426;2023-02-28T03:49:44;102729.31;;;0.58;100.00
56928;BME280;60850;52.502;13.426;2023-02-28T03:52:18;102727.34;;;0.53;100.00
56928;BME280;60850;52.502;13.426;2023-02-28T03:54:51;102722.09;;;0.53;100.00
56928;BME280;60850;52.502;13.426;2023-02-28T03:57:27;102726.22;;;0.48;100.00
56928;BME280;60850;52.502;13.426;2023-02-28T03:59:59;102725.50;;;0.51;100.00
56928;BME280;60850;52.502;13.426;2023-02-28T04:02:30;102728.47;;;0.59;100.00
56928;BME280;60850;52.502;13.426;2023-02-28T04:04:56;102721.72;;;0.64;100.00
56928;BME280;60850;52.502;13.426;2023-02-28T04:07:29;102727.75;;;0.63;100.00
56928;BME280;60850;52.502;13.426;2023-02-28T04:09:56;102732.41;;;0.68;100.00
56928;BME280;60850;52.502;13.426;2023-02-28T04:12:23;102730.13;;;0.76;100.00
56928;BME280;60850;52.502;13.426;2023-02-28T04:14:50;102730.28;;;0.79;100.00
56928;BME280;60850;52.502;13.426;2023-02-28T04:17:17;102722.75;;;0.87;100.00
56928;BME280;60850;52.502;13.426;2023-02-28T04:19:44;102733.19;;;0.85;100.00
56928;BME280;60850;52.502;13.426;2023-02-28T04:22:11;102730.56;;;0.85;100.00
56928;BME280;60850;52.502;13.426;2023-02-28T04:24:40;102725.97;;;0.81;100.00
56928;BME280;60850;52.502;13.426;2023-02-28T04:27:08;102733.19;;;0.85;100.00
56928;BME280;60850;52.502;13.426;2023-02-28T04:29:36;102729.63;;;0.85;100.00
56928;BME280;60850;52.502;13.426;2023-02-28T04:32:04;102736.63;;;0.84;100.00
56928;BME280;60850;52.502;13.426;2023-02-28T04:34:31;102736.53;;;0.82;100.00
56928;BME280;60850;52.502;13.426;2023-02-28T04:36:59;102737.31;;;0.80;100.00
56928;BME280;60850;52.502;13.426;2023-02-28T04:39:26;102732.81;;;0.77;100.00
56928;BME280;60850;52.502;13.426;2023-02-28T04:41:55;102739.66;;;0.74;100.00
56928;BME280;60850;52.502;13.426;2023-02-28T04:44:22;102737.94;;;0.74;100.00
56928;BME280;60850;52.502;13.426;2023-02-28T04:46:49;102741.53;;;0.76;100.00
56928;BME280;60850;52.502;13.426;2023-02-28T04:49:16;102741.41;;;0.73;100.00
56928;BME280;60850;52.502;13.426;2023-02-28T04:51:43;102744.06;;;0.75;100.00
56928;BME280;60850;52.502;13.426;2023-02-28T04:54:10;102746.72;;;0.75;100.00
56928;BME280;60850;52.502;13.426;2023-02-28T04:56:39;102739.78;;;0.77;100.00
56928;BME280;60850;52.502;13.426;2023-02-28T04:59:07;102744.91;;;0.74;100.00
56928;BME280;60850;52.502;13.426;2023-02-28T05:01:34;102740.34;;;0.70;100.00
56928;BME280;60850;52.502;13.426;2023-02-28T05:04:03;102746.78;;;0.57;100.00
56928;BME280;60850;52.502;13.426;2023-02-28T05:06:32;102747.47;;;0.35;100.00
56928;BME280;60850;52.502;13.426;2023-02-28T05:08:59;102758.59;;;0.30;100.00
56928;BME280;60850;52.502;13.426;2023-02-28T05:11:28;102756.34;;;0.19;100.00
56928;BME280;60850;52.502;13.426;2023-02-28T05:14:00;102754.72;;;0.21;100.00
56928;BME280;60850;52.502;13.426;2023-02-28T05:16:29;102759.66;;;0.15;100.00
56928;BME280;60850;52.502;13.426;2023-02-28T05:18:56;102751.41;;;0.08;100.00
56928;BME280;60850;52.502;13.426;2023-02-28T05:21:28;102759.06;;;0.03;100.00
56928;BME280;60850;52.502;13.426;2023-02-28T05:23:57;102763.22;;;-0.01;100.00
56928;BME280;60850;52.502;13.426;2023-02-28T05:26:24;102765.06;;;0.01;100.00
56928;BME280;60850;52.502;13.426;2023-02-28T05:28:51;102762.34;;;-0.01;100.00
56928;BME280;60850;52.502;13.426;2023-02-28T05:31:18;102766.69;;;-0.02;100.00
56928;BME280;60850;52.502;13.426;2023-02-28T05:33:46;102761.31;;;-0.05;100.00
56928;BME280;60850;52.502;13.426;2023-02-28T05:36:13;102763.22;;;-0.01;100.00
56928;BME280;60850;52.502;13.426;2023-02-28T05:38:40;102766.84;;;0.02;100.00
56928;BME280;60850;52.502;13.426;2023-02-28T05:41:08;102769.91;;;0.11;100.00
56928;BME280;60850;52.502;13.426;2023-02-28T05:43:35;102766.69;;;0.16;100.00
56928;BME280;60850;52.502;13.426;2023-02-28T05:46:04;102765.28;;;0.23;100.00
56928;BME280;60850;52.502;13.426;2023-02-28T05:48:32;102769.09;;;0.30;100.00
56928;BME280;60850;52.502;13.426;2023-02-28T05:51:00;102774.41;;;0.31;100.00
56928;BME280;60850;52.502;13.426;2023-02-28T05:53:28;102773.88;;;0.38;100.00
56928;BME280;60850;52.502;13.426;2023-02-28T05:55:55;102774.16;;;0.44;100.00
56928;BME280;60850;52.502;13.426;2023-02-28T05:58:22;102776.38;;;0.54;100.00
56928;BME280;60850;52.502;13.426;2023-02-28T06:00:51;102771.59;;;0.64;100.00
56928;BME280;60850;52.502;13.426;2023-02-28T06:03:18;102772.66;;;0.69;100.00
56928;BME280;60850;52.502;13.426;2023-02-28T06:05:45;102777.38;;;0.76;100.00
56928;BME280;60850;52.502;13.426;2023-02-28T06:08:14;102769.72;;;0.80;100.00
56928;BME280;60850;52.502;13.426;2023-02-28T06:10:41;102780.56;;;0.88;100.00
56928;BME280;60850;52.502;13.426;2023-02-28T06:13:08;102778.34;;;0.97;100.00
56928;BME280;60850;52.502;13.426;2023-02-28T06:15:35;102784.22;;;1.11;100.00
56928;BME280;60850;52.502;13.426;2023-02-28T06:18:02;102782.28;;;1.67;100.00
56928;BME280;60850;52.502;13.426;2023-02-28T06:20:29;102779.72;;;2.32;100.00
56928;BME280;60850;52.502;13.426;2023-02-28T06:22:56;102785.53;;;2.91;100.00
56928;BME280;60850;52.502;13.426;2023-02-28T06:25:26;102783.81;;;3.65;100.00
56928;BME280;60850;52.502;13.426;2023-02-28T06:27:54;102781.31;;;4.79;100.00
56928;BME280;60850;52.502;13.426;2023-02-28T06:30:21;102787.72;;;5.80;100.00
56928;BME280;60850;52.502;13.426;2023-02-28T06:32:50;102784.59;;;6.31;100.00
56928;BME280;60850;52.502;13.426;2023-02-28T06:35:18;102783.50;;;7.00;94.03
56928;BME280;60850;52.502;13.426;2023-02-28T06:37:45;102788.78;;;7.92;86.73
56928;BME280;60850;52.502;13.426;2023-02-28T06:40:13;102788.41;;;8.23;77.41
56928;BME280;60850;52.502;13.426;2023-02-28T06:42:41;102794.09;;;7.92;75.94
56928;BME280;60850;52.502;13.426;2023-02-28T06:45:09;102792.56;;;8.06;76.40
56928;BME280;60850;52.502;13.426;2023-02-28T06:47:38;102794.97;;;8.44;72.16
56928;BME280;60850;52.502;13.426;2023-02-28T06:50:07;102801.50;;;9.31;66.78
56928;BME280;60850;52.502;13.426;2023-02-28T06:52:34;102803.00;;;9.89;62.73
56928;BME280;60850;52.502;13.426;2023-02-28T06:55:04;102804.47;;;10.63;59.45
56928;BME280;60850;52.502;13.426;2023-02-28T06:57:31;102796.88;;;11.61;54.55
56928;BME280;60850;52.502;13.426;2023-02-28T07:00:02;102799.59;;;11.73;52.00
56928;BME280;60850;52.502;13.426;2023-02-28T07:02:29;102796.97;;;12.02;48.54
56928;BME280;60850;52.502;13.426;2023-02-28T07:04:57;102798.75;;;12.09;48.76
56928;BME280;60850;52.502;13.426;2023-02-28T07:07:24;102796.97;;;11.98;48.25
56928;BME280;60850;52.502;13.426;2023-02-28T07:09:51;102798.72;;;12.40;48.38
56928;BME280;60850;52.502;13.426;2023-02-28T07:12:17;102805.88;;;12.32;47.03
56928;BME280;60850;52.502;13.426;2023-02-28T07:14:45;102807.56;;;11.50;49.24
56928;BME280;60850;52.502;13.426;2023-02-28T07:17:13;102805.81;;;11.65;47.55
56928;BME280;60850;52.502;13.426;2023-02-28T07:19:40;102814.53;;;11.12;48.34
56928;BME280;60850;52.502;13.426;2023-02-28T07:22:07;102808.47;;;11.69;50.72
56928;BME280;60850;52.502;13.426;2023-02-28T07:24:34;102806.69;;;11.56;49.58
56928;BME280;60850;52.502;13.426;2023-02-28T07:27:01;102811.84;;;11.07;52.41
56928;BME280;60850;52.502;13.426;2023-02-28T07:29:28;102815.94;;;10.49;52.26
56928;BME280;60850;52.502;13.426;2023-02-28T07:31:55;102816.94;;;9.64;53.79
56928;BME280;60850;52.502;13.426;2023-02-28T07:34:24;102816.59;;;9.33;53.06
56928;BME280;60850;52.502;13.426;2023-02-28T07:36:53;102816.28;;;9.09;51.45
56928;BME280;60850;52.502;13.426;2023-02-28T07:39:20;102815.03;;;8.81;49.58
56928;BME280;60850;52.502;13.426;2023-02-28T07:41:47;102817.31;;;8.55;51.04
56928;BME280;60850;52.502;13.426;2023-02-28T07:44:14;102816.69;;;8.18;52.57
56928;BME280;60850;52.502;13.426;2023-02-28T07:46:41;102818.50;;;8.21;52.62
56928;BME280;60850;52.502;13.426;2023-02-28T07:49:08;102819.19;;;8.61;51.92
56928;BME280;60850;52.502;13.426;2023-02-28T07:51:37;102826.19;;;8.57;48.42
56928;BME280;60850;52.502;13.426;2023-02-28T07:54:04;102819.00;;;9.12;45.71
56928;BME280;60850;52.502;13.426;2023-02-28T07:56:31;102817.91;;;8.98;44.97
56928;BME280;60850;52.502;13.426;2023-02-28T07:58:58;102810.91;;;9.03;45.99
56928;BME280;60850;52.502;13.426;2023-02-28T08:01:25;102816.44;;;10.05;43.50
56928;BME280;60850;52.502;13.426;2023-02-28T08:03:52;102819.19;;;11.77;39.70
56928;BME280;60850;52.502;13.426;2023-02-28T08:06:22;102811.94;;;13.23;36.06
56928;BME280;60850;52.502;13.426;2023-02-28T08:08:51;102816.50;;;14.40;33.43
56928;BME280;60850;52.502;13.426;2023-02-28T08:11:19;102820.16;;;15.19;31.72
56928;BME280;60850;52.502;13.426;2023-02-28T08:13:46;102809.25;;;14.54;31.50
56928;BME280;60850;52.502;13.426;2023-02-28T08:16:13;102813.53;;;13.62;32.87
56928;BME280;60850;52.502;13.426;2023-02-28T08:18:43;102807.94;;;13.97;31.36
56928;BME280;60850;52.502;13.426;2023-02-28T08:21:10;102808.13;;;15.48;29.73
56928;BME280;60850;52.502;13.426;2023-02-28T08:23:37;102803.97;;;16.41;27.60
56928;BME280;60850;52.502;13.426;2023-02-28T08:26:05;102806.94;;;16.78;26.99
56928;BME280;60850;52.502;13.426;2023-02-28T08:28:33;102815.13;;;16.21;27.99
56928;BME280;60850;52.502;13.426;2023-02-28T08:31:00;102816.19;;;17.08;26.50
56928;BME280;60850;52.502;13.426;2023-02-28T08:33:28;102821.56;;;17.51;25.72
56928;BME280;60850;52.502;13.426;2023-02-28T08:35:55;102823.25;;;18.33;26.33
56928;BME280;60850;52.502;13.426;2023-02-28T08:38:23;102820.34;;;19.37;23.95
56928;BME280;60850;52.502;13.426;2023-02-28T08:40:57;102819.63;;;20.17;23.28
56928;BME280;60850;52.502;13.426;2023-02-28T08:43:25;102816.22;;;20.11;23.75
56928;BME280;60850;52.502;13.426;2023-02-28T08:45:53;102829.94;;;20.33;21.57
56928;BME280;60850;52.502;13.426;2023-02-28T08:48:22;102825.13;;;20.14;21.04
56928;BME280;60850;52.502;13.426;2023-02-28T08:50:55;102826.44;;;19.74;21.32
56928;BME280;60850;52.502;13.426;2023-02-28T08:53:22;102824.91;;;20.20;20.67
56928;BME280;60850;52.502;13.426;2023-02-28T08:55:56;102819.69;;;20.92;20.02
56928;BME280;60850;52.502;13.426;2023-02-28T08:58:23;102825.47;;;21.55;19.72
56928;BME280;60850;52.502;13.426;2023-02-28T09:00:51;102830.00;;;21.07;19.23
56928;BME280;60850;52.502;13.426;2023-02-28T09:03:18;102828.19;;;21.55;19.92
56928;BME280;60850;52.502;13.426;2023-02-28T09:05:53;102827.19;;;22.25;18.80
56928;BME280;60850;52.502;13.426;2023-02-28T09:08:20;102832.59;;;22.67;18.43
56928;BME280;60850;52.502;13.426;2023-02-28T09:10:47;102830.34;;;23.17;18.69
56928;BME280;60850;52.502;13.426;2023-02-28T09:13:14;102828.06;;;23.08;17.89
56928;BME280;60850;52.502;13.426;2023-02-28T09:15:41;102832.06;;;22.79;18.77
56928;BME280;60850;52.502;13.426;2023-02-28T09:18:09;102831.88;;;21.99;18.54
56928;BME280;60850;52.502;13.426;2023-02-28T09:20:37;102832.09;;;20.49;19.91
56928;BME280;60850;52.502;13.426;2023-02-28T09:23:05;102832.63;;;18.17;20.49
56928;BME280;60850;52.502;13.426;2023-02-28T09:25:32;102837.88;;;15.99;23.79
56928;BME280;60850;52.502;13.426;2023-02-28T09:27:59;102834.91;;;13.71;24.48
56928;BME280;60850;52.502;13.426;2023-02-28T09:30:26;102838.88;;;12.45;26.82
56928;BME280;60850;52.502;13.426;2023-02-28T09:32:54;102841.41;;;11.61;26.76
56928;BME280;60850;52.502;13.426;2023-02-28T09:35:23;102835.00;;;11.10;29.05
56928;BME280;60850;52.502;13.426;2023-02-28T09:37:52;102832.81;;;10.49;29.54
56928;BME280;60850;52.502;13.426;2023-02-28T09:40:20;102833.50;;;10.22;31.14
56928;BME280;60850;52.502;13.426;2023-02-28T09:42:51;102843.84;;;9.91;31.29
56928;BME280;60850;52.502;13.426;2023-02-28T09:45:23;102834.75;;;9.70;32.36
56928;BME280;60850;52.502;13.426;2023-02-28T09:47:53;102838.59;;;9.17;32.73
56928;BME280;60850;52.502;13.426;2023-02-28T09:50:30;102842.88;;;9.09;33.48
56928;BME280;60850;52.502;13.426;2023-02-28T09:52:59;102838.38;;;8.43;34.10
56928;BME280;60850;52.502;13.426;2023-02-28T09:55:30;102848.59;;;8.18;34.51
56928;BME280;60850;52.502;13.426;2023-02-28T09:58:00;102844.22;;;7.74;34.98
56928;BME280;60850;52.502;13.426;2023-02-28T10:00:32;102838.75;;;7.64;36.17
56928;BME280;60850;52.502;13.426;2023-02-28T10:03:10;102832.44;;;7.59;35.78
56928;BME280;60850;52.502;13.426;2023-02-28T10:05:50;102839.63;;;7.65;36.32
56928;BME280;60850;52.502;13.426;2023-02-28T10:08:23;102846.31;;;7.44;36.39
56928;BME280;60850;52.502;13.426;2023-02-28T10:10:55;102845.38;;;7.42;36.98
56928;BME280;60850;52.502;13.426;2023-02-28T10:13:25;102846.09;;;7.34;36.85
56928;BME280;60850;52.502;13.426;2023-02-28T10:15:57;102845.69;;;7.14;36.68
56928;BME280;60850;52.502;13.426;2023-02-28T10:18:28;102844.22;;;6.89;37.29
56928;BME280;60850;52.502;13.426;2023-02-28T10:20:58;102845.97;;;6.49;37.77
56928;BME280;60850;52.502;13.426;2023-02-28T10:23:28;102842.31;;;6.44;38.39
56928;BME280;60850;52.502;13.426;2023-02-28T10:26:00;102843.00;;;6.36;38.85
56928;BME280;60850;52.502;13.426;2023-02-28T10:28:29;102841.91;;;6.27;38.68
56928;BME280;60850;52.502;13.426;2023-02-28T10:30:58;102832.63;;;6.46;39.20
56928;BME280;60850;52.502;13.426;2023-02-28T10:33:29;102834.56;;;6.53;38.46
56928;BME280;60850;52.502;13.426;2023-02-28T10:35:58;102836.91;;;6.41;38.36
56928;BME280;60850;52.502;13.426;2023-02-28T10:38:27;102845.03;;;6.13;38.22
56928;BME280;60850;52.502;13.426;2023-02-28T10:41:04;102837.91;;;6.09;39.07
56928;BME280;60850;52.502;13.426;2023-02-28T10:43:31;102836.72;;;5.97;39.32
56928;BME280;60850;52.502;13.426;2023-02-28T10:46:02;102841.16;;;5.98;39.81
56928;BME280;60850;52.502;13.426;2023-02-28T10:48:34;102838.50;;;5.98;40.28
56928;BME280;60850;52.502;13.426;2023-02-28T10:51:05;102833.69;;;6.17;40.20
56928;BME280;60850;52.502;13.426;2023-02-28T10:53:37;102825.78;;;6.18;40.19
56928;BME280;60850;52.502;13.426;2023-02-28T10:56:12;102826.28;;;6.40;40.11
56928;BME280;60850;52.502;13.426;2023-02-28T10:58:51;102828.00;;;6.36;39.24
56928;BME280;60850;52.502;13.426;2023-02-28T11:01:20;102817.03;;;5.88;39.63
56928;BME280;60850;52.502;13.426;2023-02-28T11:03:48;102819.44;;;5.78;40.77
56928;BME280;60850;52.502;13.426;2023-02-28T11:06:19;102821.56;;;5.92;40.69
56928;BME280;60850;52.502;13.426;2023-02-28T11:08:50;102804.28;;;5.73;41.58
56928;BME280;60850;52.502;13.426;2023-02-28T11:11:18;102807.69;;;5.69;41.24
56928;BME280;60850;52.502;13.426;2023-02-28T11:13:47;102802.59;;;5.76;41.82
56928;BME280;60850;52.502;13.426;2023-02-28T11:16:16;102795.88;;;5.89;41.79
56928;BME280;60850;52.502;13.426;2023-02-28T11:18:48;102804.44;;;5.79;41.41
56928;BME280;60850;52.502;13.426;2023-02-28T11:21:20;102802.66;;;5.78;41.77
56928;BME280;60850;52.502;13.426;2023-02-28T11:23:51;102795.00;;;5.89;41.87
56928;BME280;60850;52.502;13.426;2023-02-28T11:26:39;102789.91;;;5.96;42.51
56928;BME280;60850;52.502;13.426;2023-02-28T11:29:19;102786.66;;;6.07;41.88
56928;BME280;60850;52.502;13.426;2023-02-28T11:32:12;102791.25;;;6.14;41.39
56928;BME280;60850;52.502;13.426;2023-02-28T11:34:41;102791.31;;;6.17;41.79
56928;BME280;60850;52.502;13.426;2023-02-28T11:37:13;102793.66;;;6.04;42.34
56928;BME280;60850;52.502;13.426;2023-02-28T11:39:42;102788.31;;;5.70;43.21
56928;BME280;60850;52.502;13.426;2023-02-28T11:42:30;102790.19;;;5.74;43.56
56928;BME280;60850;52.502;13.426;2023-02-28T11:45:12;102793.44;;;5.64;43.46
56928;BME280;60850;52.502;13.426;2023-02-28T11:47:47;102786.47;;;5.66;43.19
56928;BME280;60850;52.502;13.426;2023-02-28T11:50:27;102798.31;;;5.48;44.19
56928;BME280;60850;52.502;13.426;2023-02-28T11:53:02;102794.69;;;5.43;43.60
56928;BME280;60850;52.502;13.426;2023-02-28T11:55:35;102787.84;;;5.51;43.58
56928;BME280;60850;52.502;13.426;2023-02-28T11:58:13;102795.84;;;5.55;44.31
56928;BME280;60850;52.502;13.426;2023-02-28T12:00:56;102792.97;;;5.45;44.16
56928;BME280;60850;52.502;13.426;2023-02-28T12:03:39;102785.94;;;5.47;44.53
56928;BME280;60850;52.502;13.426;2023-02-28T12:06:17;102779.38;;;5.33;45.23
56928;BME280;60850;52.502;13.426;2023-02-28T12:09:10;102786.19;;;5.23;45.55
56928;BME280;60850;52.502;13.426;2023-02-28T12:11:48;102792.00;;;5.12;44.62
56928;BME280;60850;52.502;13.426;2023-02-28T12:14:29;102779.22;;;5.27;45.13
56928;BME280;60850;52.502;13.426;2023-02-28T12:17:12;102779.00;;;5.19;45.30
56928;BME280;60850;52.502;13.426;2023-02-28T12:19:48;102775.81;;;5.31;45.75
56928;BME280;60850;52.502;13.426;2023-02-28T12:22:28;102768.31;;;5.48;44.69
56928;BME280;60850;52.502;13.426;2023-02-28T12:25:24;102769.34;;;5.53;45.39
56928;BME280;60850;52.502;13.426;2023-02-28T12:27:59;102763.69;;;5.39;44.67
56928;BME280;60850;52.502;13.426;2023-02-28T12:30:28;102763.84;;;5.45;45.15
56928;BME280;60850;52.502;13.426;2023-02-28T12:33:03;102759.78;;;5.58;44.14
56928;BME280;60850;52.502;13.426;2023-02-28T12:35:33;102759.50;;;5.47;44.49
56928;BME280;60850;52.502;13.426;2023-02-28T12:38:04;102757.66;;;5.43;44.36
56928;BME280;60850;52.502;13.426;2023-02-28T12:40:43;102746.16;;;5.43;44.36
56928;BME280;60850;52.502;13.426;2023-02-28T12:43:13;102750.28;;;5.33;44.43
56928;BME280;60850;52.502;13.426;2023-02-28T12:45:46;102732.81;;;5.38;44.77
56928;BME280;60850;52.502;13.426;2023-02-28T12:48:20;102726.38;;;5.29;44.16
56928;BME280;60850;52.502;13.426;2023-02-28T12:50:48;102720.47;;;5.39;44.60
56928;BME280;60850;52.502;13.426;2023-02-28T12:53:23;102718.09;;;5.49;44.62
56928;BME280;60850;52.502;13.426;2023-02-28T12:56:07;102716.44;;;5.53;44.41
56928;BME280;60850;52.502;13.426;2023-02-28T12:58:39;102708.50;;;5.53;43.72
56928;BME280;60850;52.502;13.426;2023-02-28T13:10:06;102692.63;;;5.53;44.08
56928;BME280;60850;52.502;13.426;2023-02-28T13:12:47;102698.00;;;5.56;44.11
56928;BME280;60850;52.502;13.426;2023-02-28T13:15:18;102691.06;;;5.61;43.55